createdAt,value
2023-03-30T00:01:17.236Z,2.65
2023-03-30T00:03:46.502Z,2.25
2023-03-30T00:06:21.763Z,2.70
2023-03-30T00:08:57.053Z,2.17
2023-03-30T00:11:26.788Z,2.20
2023-03-30T00:13:55.782Z,2.45
2023-03-30T00:16:47.826Z,1.98
2023-03-30T00:19:26.416Z,2.53
2023-03-30T00:21:54.521Z,2.00
2023-03-30T00:24:25.144Z,2.03
2023-03-30T00:26:56.282Z,2.10
2023-03-30T00:29:29.345Z,2.15
2023-03-30T00:31:59.958Z,1.98
2023-03-30T00:34:27.037Z,2.47
2023-03-30T00:36:54.004Z,2.50
2023-03-30T00:39:22.933Z,2.47
2023-03-30T00:41:49.823Z,2.10
2023-03-30T00:44:54.538Z,1.83
2023-03-30T00:47:22.841Z,2.63
2023-03-30T00:49:49.886Z,1.80
2023-03-30T00:52:19.348Z,1.80
2023-03-30T00:54:48.025Z,2.15
2023-03-30T00:57:15.349Z,1.70
2023-03-30T00:59:42.690Z,1.98
2023-03-30T01:02:09.734Z,2.00
2023-03-30T01:04:37.843Z,1.80
2023-03-30T01:07:05.916Z,1.50
2023-03-30T01:09:33.026Z,2.00
2023-03-30T01:12:01.090Z,2.20
2023-03-30T01:14:28.107Z,2.20
2023-03-30T01:17:23.436Z,2.33
2023-03-30T01:20:18.053Z,1.80
2023-03-30T01:23:06.206Z,2.08
2023-03-30T01:25:44.653Z,1.80
2023-03-30T01:28:14.576Z,2.03
2023-03-30T01:31:19.155Z,1.77
2023-03-30T01:34:28.075Z,1.70
2023-03-30T01:37:22.124Z,1.60
2023-03-30T01:40:13.637Z,1.88
2023-03-30T01:43:03.376Z,1.80
2023-03-30T01:45:48.808Z,1.75
2023-03-30T01:48:33.576Z,2.15
2023-03-30T01:51:05.536Z,2.33
2023-03-30T01:53:48.657Z,1.98
2023-03-30T01:56:44.765Z,2.13
2023-03-30T01:59:19.478Z,1.63
2023-03-30T02:01:50.416Z,1.90
2023-03-30T02:04:23.760Z,1.45
2023-03-30T02:07:06.423Z,2.17
2023-03-30T02:12:09.508Z,2.15
2023-03-30T02:14:47.665Z,2.03
2023-03-30T02:17:22.907Z,2.15
2023-03-30T02:20:00.885Z,2.30
2023-03-30T02:22:29.631Z,1.90
2023-03-30T02:25:00.702Z,2.15
2023-03-30T02:27:28.643Z,2.10
2023-03-30T02:29:56.692Z,1.75
2023-03-30T02:32:27.549Z,1.75
2023-03-30T02:35:29.400Z,2.53
2023-03-30T02:38:28.415Z,1.85
2023-03-30T02:41:13.033Z,2.67
2023-03-30T02:43:54.145Z,1.98
2023-03-30T02:46:27.676Z,1.80
2023-03-30T02:49:46.971Z,2.10
2023-03-30T02:53:00.485Z,2.00
2023-03-30T02:55:38.459Z,1.95
2023-03-30T02:58:56.084Z,2.03
2023-03-30T03:01:39.452Z,1.70
2023-03-30T03:04:16.861Z,2.10
2023-03-30T03:06:59.142Z,1.83
2023-03-30T03:09:28.033Z,1.52
2023-03-30T03:11:56.145Z,1.92
2023-03-30T03:14:32.051Z,2.00
2023-03-30T03:17:05.156Z,2.33
2023-03-30T03:19:37.095Z,0.98
2023-03-30T03:22:04.311Z,1.60
2023-03-30T03:24:39.200Z,1.73
2023-03-30T03:27:09.291Z,1.55
2023-03-30T03:29:53.506Z,1.55
2023-03-30T03:32:20.866Z,1.50
2023-03-30T03:34:50.051Z,1.60
2023-03-30T03:37:17.456Z,1.70
2023-03-30T03:39:45.711Z,1.92
2023-03-30T03:42:14.395Z,1.38
2023-03-30T03:44:50.176Z,1.70
2023-03-30T03:47:18.239Z,2.28
2023-03-30T03:49:46.607Z,1.63
2023-03-30T03:52:13.590Z,1.40
2023-03-30T03:54:40.611Z,1.83
2023-03-30T03:57:08.047Z,1.95
2023-03-30T03:59:35.113Z,1.75
2023-03-30T04:02:02.158Z,1.65
2023-03-30T04:04:30.903Z,1.58
2023-03-30T04:07:01.979Z,1.92
2023-03-30T04:09:30.564Z,1.92
2023-03-30T04:12:03.331Z,2.10
2023-03-30T04:14:41.832Z,2.10
2023-03-30T04:17:35.329Z,1.88
2023-03-30T04:20:17.393Z,1.70
2023-03-30T04:23:10.115Z,1.92
2023-03-30T04:29:00.894Z,1.50
2023-03-30T04:31:38.351Z,1.52
2023-03-30T04:34:22.763Z,2.05
2023-03-30T04:37:07.551Z,2.30
2023-03-30T04:39:50.245Z,1.73
2023-03-30T04:42:49.769Z,2.28
2023-03-30T04:45:31.626Z,2.05
2023-03-30T04:48:23.676Z,1.73
2023-03-30T04:51:27.749Z,2.35
2023-03-30T04:54:32.752Z,2.00
2023-03-30T04:57:30.339Z,1.60
2023-03-30T05:00:27.504Z,2.15
2023-03-30T05:03:16.268Z,1.38
2023-03-30T05:06:08.135Z,1.73
2023-03-30T05:09:14.567Z,1.90
2023-03-30T05:11:54.266Z,2.03
2023-03-30T05:14:47.668Z,1.70
2023-03-30T05:17:35.263Z,2.08
2023-03-30T05:20:18.968Z,1.75
2023-03-30T05:22:59.894Z,1.58
2023-03-30T05:25:57.141Z,2.17
2023-03-30T05:28:48.576Z,1.70
2023-03-30T05:31:33.032Z,1.65
2023-03-30T05:34:38.597Z,2.20
2023-03-30T05:37:28.888Z,2.30
2023-03-30T05:40:09.498Z,2.20
2023-03-30T05:42:57.002Z,2.08
2023-03-30T05:45:44.151Z,2.35
2023-03-30T05:48:31.263Z,1.45
2023-03-30T05:51:30.608Z,2.00
2023-03-30T05:54:06.986Z,2.35
2023-03-30T05:56:58.980Z,2.20
2023-03-30T05:59:34.083Z,1.90
2023-03-30T06:02:14.265Z,3.30
2023-03-30T06:04:42.641Z,1.85
2023-03-30T06:07:11.548Z,2.10
2023-03-30T06:09:38.664Z,2.80
2023-03-30T06:12:16.748Z,2.00
2023-03-30T06:14:45.036Z,2.63
2023-03-30T06:17:26.201Z,2.78
2023-03-30T06:19:53.716Z,2.47
2023-03-30T06:22:21.746Z,3.05
2023-03-30T06:25:01.563Z,2.10
2023-03-30T06:27:32.126Z,2.83
2023-03-30T06:29:59.920Z,2.35
2023-03-30T06:32:28.513Z,2.65
2023-03-30T06:35:21.209Z,2.30
2023-03-30T06:37:48.587Z,2.92
2023-03-30T06:40:16.114Z,2.40
2023-03-30T06:42:47.152Z,2.97
2023-03-30T06:45:38.535Z,2.65
2023-03-30T06:48:07.129Z,2.45
2023-03-30T06:50:39.058Z,2.70
2023-03-30T06:53:31.535Z,2.50
2023-03-30T06:55:59.454Z,2.55
2023-03-30T06:58:28.345Z,2.72
2023-03-30T07:00:57.086Z,3.70
2023-03-30T07:03:45.923Z,3.03
2023-03-30T07:06:21.178Z,3.53
2023-03-30T07:08:49.670Z,2.53
2023-03-30T07:13:56.250Z,3.40
2023-03-30T07:16:23.360Z,3.33
2023-03-30T07:18:52.214Z,2.75
2023-03-30T07:21:19.427Z,2.55
2023-03-30T07:23:47.706Z,3.00
2023-03-30T07:26:26.459Z,2.92
2023-03-30T07:28:59.903Z,2.80
2023-03-30T07:31:29.017Z,3.28
2023-03-30T07:33:56.816Z,2.60
2023-03-30T07:36:25.920Z,2.75
2023-03-30T07:38:54.837Z,2.60
2023-03-30T07:41:23.665Z,2.72
2023-03-30T07:43:54.616Z,3.08
2023-03-30T07:46:21.902Z,2.53
2023-03-30T07:48:52.861Z,4.00
2023-03-30T07:51:21.505Z,3.25
2023-03-30T07:54:00.050Z,3.63
2023-03-30T07:56:39.318Z,2.58
2023-03-30T07:59:08.201Z,3.45
2023-03-30T08:01:38.485Z,3.28
2023-03-30T08:04:16.113Z,2.85
2023-03-30T08:06:44.431Z,3.40
2023-03-30T08:09:12.863Z,4.00
2023-03-30T08:11:41.810Z,3.35
2023-03-30T08:14:08.889Z,2.08
2023-03-30T08:16:35.940Z,3.35
2023-03-30T08:19:04.053Z,2.25
2023-03-30T08:21:31.199Z,2.67
2023-03-30T08:24:00.629Z,2.20
2023-03-30T08:26:28.917Z,2.10
2023-03-30T08:28:59.224Z,1.42
2023-03-30T08:31:28.165Z,1.73
2023-03-30T08:33:56.643Z,2.30
2023-03-30T08:36:23.818Z,1.92
2023-03-30T08:38:55.147Z,2.15
2023-03-30T08:41:27.984Z,2.42
2023-03-30T08:44:33.033Z,2.83
2023-03-30T08:47:06.563Z,2.45
2023-03-30T08:49:41.652Z,2.35
2023-03-30T08:52:17.911Z,2.67
2023-03-30T08:54:46.026Z,2.83
2023-03-30T08:57:25.046Z,3.08
2023-03-30T09:00:22.279Z,2.95
2023-03-30T09:02:57.411Z,3.25
2023-03-30T09:05:37.551Z,2.05
2023-03-30T09:08:29.342Z,3.92
2023-03-30T09:11:02.920Z,2.80
2023-03-30T09:13:39.557Z,3.42
2023-03-30T09:16:29.350Z,3.35
2023-03-30T09:18:59.229Z,3.00
2023-03-30T09:21:32.028Z,3.40
2023-03-30T09:24:02.087Z,2.58
2023-03-30T09:26:46.272Z,3.30
2023-03-30T09:29:18.633Z,3.65
2023-03-30T09:31:51.979Z,2.28
2023-03-30T09:34:27.153Z,3.50
2023-03-30T09:37:18.672Z,2.55
2023-03-30T09:39:50.736Z,3.72
2023-03-30T09:42:59.841Z,3.38
2023-03-30T09:45:34.466Z,2.95
2023-03-30T09:48:08.697Z,2.60
2023-03-30T09:50:42.838Z,4.07
2023-03-30T09:53:25.428Z,2.92
2023-03-30T09:56:07.267Z,4.22
2023-03-30T09:58:37.232Z,2.92
2023-03-30T10:01:16.884Z,3.75
2023-03-30T10:04:07.212Z,3.38
2023-03-30T10:06:39.070Z,2.85
2023-03-30T10:09:11.462Z,3.33
2023-03-30T10:11:50.744Z,2.40
2023-03-30T10:14:29.915Z,2.08
2023-03-30T10:16:58.443Z,2.00
2023-03-30T10:19:26.108Z,2.40
2023-03-30T10:21:59.755Z,2.65
2023-03-30T10:24:31.848Z,2.50
2023-03-30T10:27:13.377Z,3.50
2023-03-30T10:29:47.799Z,3.05
2023-03-30T10:32:29.560Z,3.05
2023-03-30T10:35:02.078Z,3.63
2023-03-30T10:40:21.912Z,4.07
2023-03-30T10:42:55.548Z,4.00
2023-03-30T10:46:08.983Z,4.55
2023-03-30T10:49:05.440Z,4.55
2023-03-30T10:52:08.147Z,4.30
2023-03-30T10:55:03.185Z,4.38
2023-03-30T10:57:58.364Z,4.90
2023-03-30T11:00:35.178Z,4.78
2023-03-30T11:03:25.053Z,3.25
2023-03-30T11:05:57.434Z,3.65
2023-03-30T11:08:36.035Z,3.40
2023-03-30T11:11:04.545Z,3.00
2023-03-30T11:13:44.754Z,3.20
2023-03-30T11:16:18.908Z,2.00
2023-03-30T11:19:00.548Z,3.20
2023-03-30T11:21:36.460Z,3.00
2023-03-30T11:24:12.609Z,3.17
2023-03-30T11:26:49.747Z,3.40
2023-03-30T11:29:25.991Z,3.05
2023-03-30T11:31:56.252Z,3.72
2023-03-30T11:34:32.187Z,3.60
2023-03-30T11:37:12.733Z,3.28
2023-03-30T11:39:52.011Z,3.60
2023-03-30T11:42:27.388Z,3.78
2023-03-30T11:44:55.481Z,3.22
2023-03-30T11:47:50.379Z,3.13
2023-03-30T11:50:38.754Z,3.30
2023-03-30T11:53:17.535Z,3.20
2023-03-30T11:56:06.729Z,2.83
2023-03-30T11:58:42.510Z,3.22
2023-03-30T12:01:32.724Z,3.28
2023-03-30T12:04:50.952Z,3.45
2023-03-30T12:07:56.255Z,3.00
2023-03-30T12:10:42.275Z,3.50
2023-03-30T12:13:19.649Z,3.00
2023-03-30T12:16:02.410Z,3.58
2023-03-30T12:18:35.446Z,3.25
2023-03-30T12:21:13.388Z,3.30
2023-03-30T12:23:53.360Z,2.50
2023-03-30T12:26:29.655Z,3.20
2023-03-30T12:29:44.392Z,3.05
2023-03-30T12:31:59.165Z,3.30
2023-03-30T12:34:29.640Z,2.85
2023-03-30T12:37:15.189Z,3.45
2023-03-30T12:39:50.964Z,2.97
2023-03-30T12:42:27.009Z,3.60
2023-03-30T12:45:15.525Z,3.90
2023-03-30T12:47:48.329Z,3.40
2023-03-30T12:50:40.127Z,2.80
2023-03-30T12:53:25.657Z,2.58
2023-03-30T12:56:11.404Z,2.67
2023-03-30T12:59:03.194Z,2.95
2023-03-30T13:01:34.058Z,2.63
2023-03-30T13:04:05.578Z,3.22
2023-03-30T13:06:36.281Z,3.80
2023-03-30T13:09:15.656Z,3.08
2023-03-30T13:11:43.978Z,3.22
2023-03-30T13:14:34.114Z,2.05
2023-03-30T13:17:01.477Z,3.38
2023-03-30T13:19:32.722Z,3.70
2023-03-30T13:22:12.394Z,3.38
2023-03-30T13:24:54.327Z,3.17
2023-03-30T13:27:36.575Z,2.40
2023-03-30T13:30:10.085Z,3.03
2023-03-30T13:32:40.315Z,2.35
2023-03-30T13:35:26.018Z,2.63
2023-03-30T13:38:11.139Z,3.03
2023-03-30T13:41:05.673Z,2.75
2023-03-30T13:43:57.318Z,2.72
2023-03-30T13:46:45.069Z,2.60
2023-03-30T13:49:20.972Z,2.88
2023-03-30T13:51:49.136Z,3.63
2023-03-30T13:54:34.465Z,2.92
2023-03-30T13:57:11.520Z,3.17
2023-03-30T13:59:45.879Z,2.80
2023-03-30T14:02:17.669Z,1.95
2023-03-30T14:04:47.982Z,2.47
2023-03-30T14:07:19.609Z,2.30
2023-03-30T14:10:13.546Z,2.60
2023-03-30T14:12:42.745Z,2.40
2023-03-30T14:15:39.802Z,2.00
2023-03-30T14:18:13.691Z,1.35
2023-03-30T14:20:54.066Z,2.28
2023-03-30T14:23:36.206Z,1.33
2023-03-30T14:26:26.684Z,1.65
2023-03-30T14:29:04.676Z,2.20
2023-03-30T14:31:47.196Z,1.65
2023-03-30T14:34:33.461Z,2.20
2023-03-30T14:37:06.377Z,1.85
2023-03-30T14:39:42.829Z,1.33
2023-03-30T14:42:44.623Z,1.02
2023-03-30T14:47:51.626Z,1.80
2023-03-30T14:50:20.430Z,2.03
2023-03-30T14:52:49.209Z,2.35
2023-03-30T14:55:25.514Z,1.60
2023-03-30T14:58:12.464Z,2.30
2023-03-30T15:06:18.105Z,2.20
2023-03-30T15:08:55.382Z,2.13
2023-03-30T15:17:29.426Z,1.90
2023-03-30T15:19:59.934Z,2.35
2023-03-30T15:22:34.226Z,2.25
2023-03-30T15:25:06.646Z,2.38
2023-03-30T15:27:38.108Z,1.95
2023-03-30T15:30:06.899Z,2.55
2023-03-30T15:32:38.987Z,2.08
2023-03-30T15:35:16.102Z,1.95
2023-03-30T15:37:54.882Z,2.03
2023-03-30T15:40:40.063Z,2.22
2023-03-30T15:43:31.095Z,2.00
2023-03-30T15:46:13.756Z,2.10
2023-03-30T15:51:21.109Z,2.40
2023-03-30T15:53:56.923Z,2.30
2023-03-30T15:56:33.468Z,2.42
2023-03-30T15:59:01.879Z,2.08
2023-03-30T16:01:48.094Z,2.45
2023-03-30T16:04:17.569Z,1.50
2023-03-30T16:06:47.115Z,2.17
2023-03-30T16:09:15.012Z,2.53
2023-03-30T16:11:45.225Z,2.42
2023-03-30T16:15:08.111Z,2.10
2023-03-30T16:17:38.930Z,2.03
2023-03-30T16:20:31.183Z,1.70
2023-03-30T16:27:56.616Z,1.83
2023-03-30T16:30:31.764Z,1.48
2023-03-30T16:33:02.498Z,2.35
2023-03-30T16:36:36.082Z,1.50
2023-03-30T16:39:05.647Z,1.90
2023-03-30T16:41:35.904Z,1.75
2023-03-30T16:48:25.712Z,1.98
2023-03-30T16:54:57.439Z,2.37
2023-03-30T16:57:26.181Z,1.98
2023-03-30T16:59:54.249Z,2.40
2023-03-30T17:02:24.040Z,1.70
2023-03-30T17:04:52.191Z,2.00
2023-03-30T17:07:19.308Z,2.00
2023-03-30T17:09:48.411Z,2.15
2023-03-30T17:12:41.892Z,1.70
2023-03-30T17:15:14.340Z,1.92
2023-03-30T17:17:42.609Z,2.88
2023-03-30T17:20:24.713Z,2.67
2023-03-30T17:22:51.972Z,2.53
2023-03-30T17:25:23.885Z,1.52
2023-03-30T17:27:51.948Z,2.15
2023-03-30T17:30:36.711Z,2.30
2023-03-30T17:33:18.697Z,2.00
2023-03-30T17:36:16.771Z,2.50
2023-03-30T17:38:44.156Z,2.53
2023-03-30T17:41:13.933Z,2.63
2023-03-30T17:43:43.484Z,2.40
2023-03-30T17:46:13.924Z,1.65
2023-03-30T17:48:41.829Z,2.38
2023-03-30T17:51:09.585Z,2.72
2023-03-30T17:53:37.300Z,2.30
2023-03-30T17:56:05.071Z,2.20
2023-03-30T17:58:35.163Z,2.65
2023-03-30T18:01:05.235Z,2.13
2023-03-30T18:03:32.855Z,2.50
2023-03-30T18:06:01.928Z,2.03
2023-03-30T18:08:30.716Z,2.10
2023-03-30T18:11:00.145Z,2.30
2023-03-30T18:13:30.765Z,2.55
2023-03-30T18:15:59.569Z,2.05
2023-03-30T18:18:29.463Z,1.90
2023-03-30T18:21:05.215Z,2.30
2023-03-30T18:23:34.850Z,2.05
2023-03-30T18:26:11.040Z,2.50
2023-03-30T18:28:48.398Z,2.10
2023-03-30T18:31:15.566Z,1.63
2023-03-30T18:33:42.580Z,2.05
2023-03-30T18:36:13.147Z,2.08
2023-03-30T18:38:41.207Z,1.92
2023-03-30T18:41:13.575Z,2.20
2023-03-30T18:43:43.203Z,2.35
2023-03-30T18:46:13.275Z,2.22
2023-03-30T18:48:42.450Z,2.45
2023-03-30T18:51:12.665Z,2.50
2023-03-30T18:53:53.136Z,2.25
2023-03-30T18:56:20.578Z,2.63
2023-03-30T18:58:49.579Z,2.13
2023-03-30T19:01:16.609Z,1.85
2023-03-30T19:03:44.840Z,3.03
2023-03-30T19:06:15.992Z,2.40
2023-03-30T19:08:43.586Z,2.38
2023-03-30T19:11:17.906Z,2.38
2023-03-30T19:13:49.816Z,2.53
2023-03-30T19:16:18.531Z,2.20
2023-03-30T19:18:47.470Z,2.40
2023-03-30T19:21:24.663Z,2.72
2023-03-30T19:23:53.705Z,2.20
2023-03-30T19:26:23.293Z,2.67
2023-03-30T19:28:53.639Z,3.53
2023-03-30T19:31:20.740Z,2.15
2023-03-30T19:33:49.781Z,2.90
2023-03-30T19:36:18.019Z,1.77
2023-03-30T19:38:48.525Z,2.65
2023-03-30T19:41:16.628Z,2.60
2023-03-30T19:43:45.571Z,2.90
2023-03-30T19:46:13.577Z,2.53
2023-03-30T19:48:43.353Z,2.45
2023-03-30T19:51:12.241Z,2.80
2023-03-30T19:53:39.303Z,2.75
2023-03-30T19:56:11.128Z,2.22
2023-03-30T19:58:39.312Z,2.60
2023-03-30T20:01:10.393Z,3.05
2023-03-30T20:03:39.738Z,2.88
2023-03-30T20:06:12.695Z,2.80
2023-03-30T20:08:40.613Z,3.70
2023-03-30T20:11:10.605Z,2.95
2023-03-30T20:13:37.616Z,2.67
2023-03-30T20:17:00.759Z,3.22
2023-03-30T20:19:32.972Z,3.13
2023-03-30T20:22:01.253Z,3.35
2023-03-30T20:24:51.422Z,3.22
2023-03-30T20:27:43.231Z,3.70
2023-03-30T20:30:21.283Z,4.63
2023-03-30T20:33:06.275Z,3.67
2023-03-30T20:35:39.128Z,3.35
2023-03-30T20:40:36.272Z,3.30
2023-03-30T20:43:10.203Z,4.38
2023-03-30T20:45:46.556Z,3.67
2023-03-30T20:48:28.990Z,3.85
2023-03-30T20:50:57.561Z,4.55
2023-03-30T20:53:26.636Z,5.30
2023-03-30T20:55:54.514Z,4.93
2023-03-30T20:58:25.398Z,5.20
2023-03-30T21:00:59.232Z,5.77
2023-03-30T21:03:37.949Z,5.97
2023-03-30T21:06:07.070Z,6.03
2023-03-30T21:08:36.396Z,5.35
2023-03-30T21:11:03.749Z,5.97
2023-03-30T21:13:33.985Z,6.07
2023-03-30T21:16:06.982Z,5.60
2023-03-30T21:18:35.679Z,5.57
2023-03-30T21:21:06.410Z,5.90
2023-03-30T21:23:40.073Z,5.40
2023-03-30T21:26:08.269Z,4.97
2023-03-30T21:28:39.035Z,4.95
2023-03-30T21:31:08.932Z,4.82
2023-03-30T21:33:36.788Z,5.10
2023-03-30T21:36:05.293Z,3.58
2023-03-30T21:38:35.658Z,3.15
2023-03-30T21:41:04.862Z,3.33
2023-03-30T21:43:35.022Z,3.38
2023-03-30T21:46:07.593Z,3.10
2023-03-30T21:48:37.800Z,2.92
2023-03-30T21:51:08.283Z,3.08
2023-03-30T21:53:38.577Z,3.00
2023-03-30T21:56:07.350Z,2.45
2023-03-30T21:58:36.437Z,2.80
2023-03-30T22:01:12.473Z,2.65
2023-03-30T22:03:42.403Z,2.20
2023-03-30T22:06:13.262Z,2.28
2023-03-30T22:08:41.628Z,2.10
2023-03-30T22:11:13.749Z,2.38
2023-03-30T22:13:44.324Z,2.30
2023-03-30T22:16:17.778Z,2.35
2023-03-30T22:18:46.710Z,2.47
2023-03-30T22:21:34.496Z,2.60
2023-03-30T22:24:07.409Z,2.22
2023-03-30T22:29:02.048Z,2.35
2023-03-30T22:31:29.302Z,2.47
2023-03-30T22:33:56.923Z,1.77
2023-03-30T22:36:31.265Z,2.13
2023-03-30T22:39:00.676Z,2.35
2023-03-30T22:41:28.441Z,2.05
2023-03-30T22:43:57.434Z,2.75
2023-03-30T22:46:26.214Z,1.80
2023-03-30T22:48:55.688Z,1.88
2023-03-30T22:51:28.022Z,2.30
2023-03-30T22:56:28.760Z,2.00
2023-03-30T22:58:56.378Z,2.17
2023-03-30T23:01:23.871Z,1.95
2023-03-30T23:03:53.184Z,2.17
2023-03-30T23:06:20.440Z,2.05
2023-03-30T23:08:48.756Z,1.60
2023-03-30T23:11:21.688Z,2.53
2023-03-30T23:13:49.492Z,2.58
2023-03-30T23:16:16.549Z,2.83
2023-03-30T23:18:43.571Z,2.25
2023-03-30T23:21:11.341Z,3.30
2023-03-30T23:23:38.677Z,3.25
2023-03-30T23:26:10.272Z,3.00
2023-03-30T23:28:41.855Z,2.53
2023-03-30T23:31:09.926Z,2.00
2023-03-30T23:33:37.073Z,3.08
2023-03-30T23:36:06.305Z,2.85
2023-03-30T23:38:37.687Z,3.20
2023-03-30T23:41:06.229Z,3.97
2023-03-30T23:43:34.430Z,2.25
2023-03-30T23:46:02.665Z,2.85
2023-03-30T23:48:30.205Z,2.35
2023-03-30T23:51:26.441Z,2.70
2023-03-30T23:53:56.765Z,3.10
2023-03-30T23:56:27.847Z,2.90
2023-03-30T23:58:59.976Z,3.28
